createdAt,value
2018-11-03T00:03:04.384Z,91.40
2018-11-03T00:08:07.483Z,91.40
2018-11-03T00:13:10.580Z,91.30
2018-11-03T00:18:13.680Z,91.40
2018-11-03T00:23:16.779Z,91.40
2018-11-03T00:28:19.884Z,91.40
2018-11-03T00:33:22.988Z,91.50
2018-11-03T00:38:26.088Z,91.50
2018-11-03T00:43:29.187Z,91.50
2018-11-03T00:48:32.284Z,91.50
2018-11-03T00:53:35.380Z,91.50
2018-11-03T00:58:38.479Z,91.60
2018-11-03T01:03:41.864Z,91.60
2018-11-03T01:08:44.976Z,91.60
2018-11-03T01:13:48.071Z,91.60
2018-11-03T01:18:51.171Z,91.60
2018-11-03T01:23:54.285Z,91.60
2018-11-03T01:28:57.377Z,91.70
2018-11-03T01:34:00.477Z,91.70
2018-11-03T01:39:04.413Z,91.80
2018-11-03T01:44:07.725Z,91.70
2018-11-03T01:49:10.826Z,91.70
2018-11-03T01:54:13.923Z,91.70
2018-11-03T01:59:17.024Z,91.70
2018-11-03T02:04:20.166Z,91.80
2018-11-03T02:09:23.268Z,91.60
2018-11-03T02:14:26.368Z,91.70
2018-11-03T02:19:30.514Z,91.60
2018-11-03T02:24:33.613Z,91.60
2018-11-03T02:29:36.720Z,91.70
2018-11-03T02:34:39.833Z,91.50
2018-11-03T02:39:42.941Z,91.60
2018-11-03T02:44:46.061Z,91.50
2018-11-03T02:49:49.149Z,91.50
2018-11-03T02:54:52.260Z,91.60
2018-11-03T02:59:55.478Z,91.60
2018-11-03T03:04:58.576Z,91.60
2018-11-03T03:10:01.685Z,91.70
2018-11-03T03:15:06.444Z,91.40
2018-11-03T03:20:10.804Z,91.50
2018-11-03T03:25:13.864Z,91.70
2018-11-03T03:30:16.973Z,91.60
2018-11-03T03:35:20.103Z,91.60
2018-11-03T03:40:23.198Z,91.50
2018-11-03T03:45:26.296Z,91.80
2018-11-03T03:50:29.409Z,91.70
2018-11-03T03:55:32.517Z,91.70
2018-11-03T04:00:35.620Z,91.70
2018-11-03T04:05:38.724Z,91.80
2018-11-03T04:10:41.900Z,91.90
2018-11-03T04:15:45.021Z,91.90
2018-11-03T04:20:48.122Z,91.90
2018-11-03T04:25:51.230Z,91.80
2018-11-03T04:30:54.330Z,91.80
2018-11-03T04:35:57.433Z,91.80
2018-11-03T04:41:00.549Z,91.90
2018-11-03T04:46:03.777Z,91.90
2018-11-03T04:51:07.221Z,91.90
2018-11-03T04:56:10.321Z,91.80
2018-11-03T05:01:13.425Z,91.90
2018-11-03T05:06:16.533Z,91.90
2018-11-03T05:11:19.654Z,91.90
2018-11-03T05:16:22.752Z,91.80
2018-11-03T05:21:25.944Z,91.80
2018-11-03T05:26:28.965Z,91.90
2018-11-03T05:31:32.090Z,92.20
2018-11-03T05:36:35.160Z,91.90
2018-11-03T05:41:38.265Z,91.90
2018-11-03T05:46:41.563Z,91.90
2018-11-03T05:51:44.632Z,91.80
2018-11-03T05:56:47.885Z,91.90
2018-11-03T06:01:50.989Z,91.90
2018-11-03T06:06:54.089Z,91.90
2018-11-03T06:11:57.196Z,91.90
2018-11-03T06:17:00.299Z,92.00
2018-11-03T06:22:03.393Z,92.00
2018-11-03T06:27:06.520Z,92.00
2018-11-03T06:32:09.618Z,91.80
2018-11-03T06:37:12.721Z,92.00
2018-11-03T06:42:15.825Z,92.00
2018-11-03T06:47:19.041Z,92.00
2018-11-03T06:52:22.232Z,92.00
2018-11-03T06:57:25.244Z,92.00
2018-11-03T07:02:28.385Z,92.00
2018-11-03T07:07:31.498Z,92.00
2018-11-03T07:12:34.835Z,92.00
2018-11-03T07:17:37.819Z,92.00
2018-11-03T07:22:42.012Z,92.00
2018-11-03T07:27:45.280Z,91.90
2018-11-03T07:32:48.376Z,91.90
2018-11-03T07:37:51.480Z,91.90
2018-11-03T07:42:54.585Z,91.80
2018-11-03T07:47:57.723Z,91.80
2018-11-03T07:53:00.809Z,91.80
2018-11-03T07:58:04.124Z,91.70
2018-11-03T08:03:07.223Z,91.60
2018-11-03T08:08:10.343Z,91.70
2018-11-03T08:13:13.452Z,91.60
2018-11-03T08:18:16.556Z,91.60
2018-11-03T08:23:20.185Z,91.70
2018-11-03T08:28:23.288Z,91.70
2018-11-03T08:33:26.396Z,91.70
2018-11-03T08:38:29.508Z,91.20
2018-11-03T08:43:32.616Z,91.20
2018-11-03T08:48:35.805Z,91.20
2018-11-03T08:53:38.865Z,91.20
2018-11-03T08:58:41.976Z,91.20
2018-11-03T09:03:45.074Z,91.30
2018-11-03T09:08:48.201Z,91.20
2018-11-03T09:13:51.272Z,91.20
2018-11-03T09:18:54.380Z,91.20
2018-11-03T09:23:57.483Z,91.10
2018-11-03T09:29:00.589Z,91.10
2018-11-03T09:34:03.687Z,90.70
2018-11-03T09:39:08.777Z,90.30
2018-11-03T09:44:11.840Z,90.50
2018-11-03T09:49:14.952Z,90.70
2018-11-03T09:54:18.074Z,90.90
2018-11-03T09:59:21.176Z,90.80
2018-11-03T10:04:24.325Z,90.60
2018-11-03T10:09:27.423Z,90.10
2018-11-03T10:14:30.540Z,90.30
2018-11-03T10:19:33.666Z,89.40
2018-11-03T10:24:36.777Z,88.30
2018-11-03T10:29:39.882Z,89.40
2018-11-03T10:34:42.994Z,90.40
2018-11-03T10:39:46.117Z,90.40
2018-11-03T10:44:49.218Z,90.20
2018-11-03T10:49:52.329Z,90.10
2018-11-03T10:54:55.431Z,89.70
2018-11-03T10:59:58.553Z,90.10
2018-11-03T11:05:07.053Z,90.00
2018-11-03T11:10:17.247Z,90.10
2018-11-03T11:15:20.359Z,88.90
2018-11-03T11:20:23.468Z,87.70
2018-11-03T11:25:26.680Z,87.00
2018-11-03T11:30:35.697Z,89.50
2018-11-03T11:35:38.900Z,87.10
2018-11-03T11:40:42.326Z,88.50
2018-11-03T11:45:45.448Z,89.50
2018-11-03T11:50:48.562Z,89.70
2018-11-03T11:55:51.667Z,88.70
2018-11-03T12:00:54.771Z,88.60
2018-11-03T12:05:57.883Z,88.30
2018-11-03T12:16:02.284Z,88.90
2018-11-03T12:21:05.564Z,88.30
2018-11-03T12:26:08.690Z,88.00
2018-11-03T12:31:11.800Z,87.80
2018-11-03T12:36:14.917Z,88.80
2018-11-03T12:41:18.101Z,87.50
2018-11-03T12:46:21.184Z,88.40
2018-11-03T12:51:24.292Z,87.50
2018-11-03T12:56:27.405Z,86.70
2018-11-03T13:01:30.517Z,86.70
2018-11-03T13:06:33.621Z,85.40
2018-11-03T13:11:36.732Z,88.30
2018-11-03T13:16:39.824Z,87.20
2018-11-03T13:21:42.972Z,87.90
2018-11-03T13:26:46.084Z,87.80
2018-11-03T13:31:49.184Z,86.90
2018-11-03T13:36:52.285Z,87.10
2018-11-03T13:41:55.398Z,85.50
2018-11-03T13:46:58.535Z,87.50
2018-11-03T13:52:01.640Z,85.20
2018-11-03T13:57:04.841Z,86.10
2018-11-03T14:02:07.900Z,85.90
2018-11-03T14:07:11.094Z,86.50
2018-11-03T14:12:14.209Z,87.50
2018-11-03T14:17:17.392Z,86.60
2018-11-03T14:22:20.449Z,86.50
2018-11-03T14:27:23.552Z,85.90
2018-11-03T14:32:26.657Z,84.50
2018-11-03T14:37:29.756Z,84.90
2018-11-03T14:42:32.877Z,86.10
2018-11-03T14:47:35.988Z,86.40
2018-11-03T14:52:40.285Z,86.80
2018-11-03T14:57:43.424Z,85.10
2018-11-03T15:02:46.532Z,86.10
2018-11-03T15:07:49.636Z,85.80
2018-11-03T15:12:52.778Z,86.10
2018-11-03T15:17:55.905Z,86.60
2018-11-03T15:22:59.030Z,86.00
2018-11-03T15:28:02.136Z,86.20
2018-11-03T15:33:05.529Z,86.40
2018-11-03T15:38:08.649Z,86.50
2018-11-03T15:43:11.761Z,86.60
2018-11-03T15:48:14.893Z,86.30
2018-11-03T15:53:18.074Z,85.70
2018-11-03T15:58:21.176Z,85.60
2018-11-03T16:03:24.288Z,86.20
2018-11-03T16:08:27.396Z,86.20
2018-11-03T16:13:30.602Z,87.00
2018-11-03T16:18:33.721Z,86.10
2018-11-03T16:23:36.836Z,86.30
2018-11-03T16:28:40.091Z,86.40
2018-11-03T16:33:43.061Z,86.40
2018-11-03T16:38:46.184Z,86.40
2018-11-03T16:43:49.292Z,86.20
2018-11-03T16:48:52.404Z,86.60
2018-11-03T16:53:55.529Z,86.40
2018-11-03T16:58:58.647Z,86.60
2018-11-03T17:04:01.749Z,86.80
2018-11-03T17:09:06.408Z,86.70
2018-11-03T17:14:09.661Z,87.00
2018-11-03T17:19:12.772Z,87.00
2018-11-03T17:24:15.890Z,87.20
2018-11-03T17:29:19.002Z,87.30
2018-11-03T17:34:22.112Z,87.30
2018-11-03T17:39:25.244Z,87.50
2018-11-03T17:44:28.346Z,87.60
2018-11-03T17:49:31.448Z,87.80
2018-11-03T17:54:34.594Z,88.00
2018-11-03T17:59:37.697Z,88.00
2018-11-03T18:04:40.808Z,88.30
2018-11-03T18:09:43.959Z,88.30
2018-11-03T18:14:47.064Z,88.50
2018-11-03T18:19:50.212Z,88.60
2018-11-03T18:24:53.304Z,88.80
2018-11-03T18:29:56.413Z,88.90
2018-11-03T18:34:59.577Z,89.10
2018-11-03T18:40:02.705Z,89.10
2018-11-03T18:45:06.005Z,89.40
2018-11-03T18:50:10.681Z,89.30
2018-11-03T18:55:13.854Z,89.40
2018-11-03T19:00:16.930Z,89.40
2018-11-03T19:05:20.065Z,89.50
2018-11-03T19:10:23.203Z,89.60
2018-11-03T19:15:26.339Z,89.60
2018-11-03T19:20:29.449Z,89.70
2018-11-03T19:25:32.557Z,89.70
2018-11-03T19:30:35.685Z,89.70
2018-11-03T19:35:38.792Z,90.00
2018-11-03T19:40:41.911Z,89.80
2018-11-03T19:45:45.019Z,89.70
2018-11-03T19:50:48.134Z,89.80
2018-11-03T19:55:51.485Z,90.00
2018-11-03T20:00:54.440Z,90.00
2018-11-03T20:05:57.573Z,90.00
2018-11-03T20:11:00.685Z,90.10
2018-11-03T20:16:03.793Z,90.10
2018-11-03T20:21:07.009Z,90.10
2018-11-03T20:26:10.204Z,90.20
2018-11-03T20:31:13.296Z,90.30
2018-11-03T20:36:16.429Z,90.20
2018-11-03T20:41:19.551Z,90.40
2018-11-03T20:46:22.732Z,90.30
2018-11-03T20:51:25.844Z,90.30
2018-11-03T20:56:28.992Z,90.50
2018-11-03T21:01:32.141Z,90.60
2018-11-03T21:06:35.263Z,90.60
2018-11-03T21:11:38.418Z,90.80
2018-11-03T21:16:41.528Z,90.70
2018-11-03T21:21:44.713Z,90.90
2018-11-03T21:26:47.849Z,90.90
2018-11-03T21:31:51.063Z,90.90
2018-11-03T21:36:54.100Z,91.10
2018-11-03T21:41:57.209Z,91.10
2018-11-03T21:47:00.407Z,91.20
2018-11-03T21:52:03.516Z,91.20
2018-11-03T21:57:06.716Z,91.10
2018-11-03T22:02:09.885Z,91.20
2018-11-03T22:07:13.053Z,91.20
2018-11-03T22:12:16.164Z,91.10
2018-11-03T22:17:19.281Z,91.30
2018-11-03T22:22:22.392Z,91.30
2018-11-03T22:27:25.683Z,91.30
2018-11-03T22:32:28.796Z,91.40
2018-11-03T22:37:31.918Z,91.30
2018-11-03T22:42:35.028Z,91.40
2018-11-03T22:47:38.128Z,91.40
2018-11-03T22:52:41.287Z,91.40
2018-11-03T22:57:44.351Z,91.40
2018-11-03T23:02:47.458Z,91.50
2018-11-03T23:07:50.643Z,91.50
2018-11-03T23:12:53.689Z,91.50
2018-11-03T23:17:56.804Z,91.50
2018-11-03T23:22:59.910Z,91.50
2018-11-03T23:28:03.037Z,91.50
2018-11-03T23:33:06.284Z,91.60
2018-11-03T23:38:09.406Z,91.50
2018-11-03T23:43:12.509Z,91.60
2018-11-03T23:48:15.620Z,91.50
2018-11-03T23:53:18.780Z,91.60
2018-11-03T23:58:21.833Z,91.60
